Time;durP1;ratioP1;P1;durP2;ratioP2;P2;SDS_P1;SDS_P2;PMS_P1;PMS_P2;Temp;Humidity;BMP_temperature;BMP_pressure;BME280_temperature;BME280_humidity;BME280_pressure;Samples;Min_cycle;Max_cycle;Signal;HPM_P1;HPM_P2
2024/01/09 00:00:42;;;;;;;1.05;1.05;;;;;;;-8.68;71.50;98930.75;4952877;28;20051;-73
2024/01/09 00:03:10;;;;;;;1.42;1.42;;;;;;;-8.71;72.09;98935.16;4945767;28;20503;-73
2024/01/09 00:05:39;;;;;;;0.47;0.47;;;;;;;-8.66;72.15;98938.50;4949897;28;20411;-73
2024/01/09 00:08:07;;;;;;;1.23;1.23;;;;;;;-8.64;72.18;98942.75;4951750;28;20074;-76
2024/01/09 00:10:34;;;;;;;1.08;1.08;;;;;;;-8.56;71.66;98945.94;4947605;28;20039;-73
2024/01/09 00:13:03;;;;;;;1.17;1.17;;;;;;;-8.57;71.46;98939.06;4952296;28;20055;-75
2024/01/09 00:15:31;;;;;;;0.90;0.90;;;;;;;-8.66;71.55;98948.84;4941900;28;20050;-73
2024/01/09 00:17:58;;;;;;;1.02;1.02;;;;;;;-8.66;71.67;98947.09;4952555;28;20043;-73
2024/01/09 00:20:26;;;;;;;1.75;1.75;;;;;;;-8.71;71.98;98953.28;4948595;28;20047;-74
2024/01/09 00:22:55;;;;;;;1.23;1.23;;;;;;;-8.72;72.01;98954.19;4948823;28;20042;-73
2024/01/09 00:25:23;;;;;;;1.05;1.05;;;;;;;-8.66;71.98;98954.00;4950397;28;20137;-73
2024/01/09 00:27:50;;;;;;;1.00;1.00;;;;;;;-8.60;71.90;98952.09;4947400;28;20043;-75
2024/01/09 00:30:19;;;;;;;1.10;1.10;;;;;;;-8.56;71.80;98958.03;4939081;28;20054;-74
2024/01/09 00:32:49;;;;;;;0.52;0.52;;;;;;;-8.50;71.54;98964.75;4946066;28;20401;-74
2024/01/09 00:35:18;;;;;;;0.98;0.98;;;;;;;-8.52;71.48;98961.41;4944028;28;20127;-74
2024/01/09 00:37:45;;;;;;;0.40;0.40;;;;;;;-8.46;71.55;98962.06;4952424;28;20351;-75
2024/01/09 00:40:14;;;;;;;1.15;1.15;;;;;;;-8.47;71.35;98962.94;4949773;28;20055;-75
2024/01/09 00:42:42;;;;;;;1.15;1.15;;;;;;;-8.56;71.71;98951.13;4952026;28;20036;-74
2024/01/09 00:45:11;;;;;;;1.25;1.25;;;;;;;-8.84;71.90;98960.53;4955896;28;20058;-74
2024/01/09 00:47:38;;;;;;;1.17;1.17;;;;;;;-8.72;72.42;98962.78;4950528;28;20039;-74
2024/01/09 00:50:07;;;;;;;1.15;1.15;;;;;;;-8.61;72.18;98960.72;4954930;28;20043;-74
2024/01/09 00:52:34;;;;;;;1.15;1.15;;;;;;;-8.73;72.16;98968.84;4955285;28;20039;-74
2024/01/09 00:55:02;;;;;;;1.65;1.65;;;;;;;-8.69;72.41;98967.88;4955398;28;20051;-74
2024/01/09 00:57:31;;;;;;;1.05;1.05;;;;;;;-8.65;71.88;98972.06;4949388;28;20047;-74
2024/01/09 00:59:58;;;;;;;0.93;0.93;;;;;;;-8.83;72.73;98966.56;4952511;28;20053;-74
2024/01/09 01:02:26;;;;;;;1.08;1.08;;;;;;;-8.75;72.64;98967.19;4954550;28;20062;-74
2024/01/09 01:04:54;;;;;;;0.85;0.85;;;;;;;-8.71;72.80;98971.38;4955310;28;20134;-74
2024/01/09 01:07:22;;;;;;;1.10;1.10;;;;;;;-8.68;72.19;98966.97;4948013;28;20051;-74
2024/01/09 01:09:49;;;;;;;0.95;0.95;;;;;;;-8.65;72.17;98969.50;4954735;28;20046;-75
2024/01/09 01:12:17;;;;;;;1.13;1.13;;;;;;;-8.65;72.25;98971.22;4952268;28;20110;-75
2024/01/09 01:14:46;;;;;;;1.08;1.08;;;;;;;-8.66;72.45;98967.78;4953321;28;20039;-75
2024/01/09 01:17:13;;;;;;;1.05;1.05;;;;;;;-8.67;72.71;98966.09;4953014;28;20102;-75
2024/01/09 01:19:41;;;;;;;0.88;0.88;;;;;;;-8.76;72.73;98966.34;4947409;28;20122;-75
2024/01/09 01:22:08;;;;;;;0.95;0.95;;;;;;;-8.72;72.29;98961.94;4952278;28;20506;-75
2024/01/09 01:24:36;;;;;;;0.30;0.30;;;;;;;-8.82;72.90;98961.31;4955673;29;20406;-74
2024/01/09 01:27:04;;;;;;;1.17;1.17;;;;;;;-8.75;72.72;98959.44;4955665;28;20047;-75
2024/01/09 01:29:32;;;;;;;1.15;1.15;;;;;;;-8.71;72.41;98963.63;4952452;28;20047;-74
2024/01/09 01:32:00;;;;;;;0.98;0.98;;;;;;;-8.71;72.15;98963.63;4957045;28;20078;-74
2024/01/09 01:34:27;;;;;;;1.27;1.27;;;;;;;-8.70;72.36;98961.00;4955006;28;20050;-74
2024/01/09 01:36:55;;;;;;;1.48;1.48;;;;;;;-8.89;73.15;98964.97;4943369;28;20578;-75
2024/01/09 01:39:22;;;;;;;1.10;1.10;;;;;;;-8.87;72.81;98964.94;4953985;28;20039;-74
2024/01/09 01:41:50;;;;;;;1.02;1.02;;;;;;;-8.82;72.88;98963.09;4953888;28;20491;-74
2024/01/09 01:44:18;;;;;;;1.30;1.30;;;;;;;-8.73;72.59;98970.59;4951544;28;20039;-74
2024/01/09 01:46:46;;;;;;;1.55;1.55;;;;;;;-8.90;72.85;98965.88;4950485;28;20055;-75
2024/01/09 01:49:18;;;;;;;1.05;1.05;;;;;;;-8.80;72.66;98963.88;4936492;28;20529;-75
2024/01/09 01:51:47;;;;;;;0.30;0.30;;;;;;;-8.92;72.63;98972.81;4950415;28;20442;-75
2024/01/09 01:54:15;;;;;;;1.30;1.30;;;;;;;-8.91;73.03;98966.75;4954423;28;20039;-76
2024/01/09 01:56:44;;;;;;;1.05;1.05;;;;;;;-8.86;72.63;98971.81;4937806;29;20134;-74
2024/01/09 01:59:16;;;;;;;1.08;1.08;;;;;;;-8.86;72.50;98966.63;4948582;28;20138;-75
2024/01/09 02:01:44;;;;;;;1.10;1.10;;;;;;;-8.98;72.64;98968.66;4954234;28;20094;-74
2024/01/09 02:04:11;;;;;;;0.30;0.30;;;;;;;-9.15;73.03;98967.41;4954097;28;20053;-74
2024/01/09 02:06:41;;;;;;;1.33;1.33;;;;;;;-9.11;73.42;98961.25;4950375;28;20047;-74
2024/01/09 02:09:08;;;;;;;1.52;1.52;;;;;;;-9.05;73.10;98969.72;4951018;28;20055;-74
2024/01/09 02:11:36;;;;;;;0.98;0.98;;;;;;;-8.92;73.08;98965.03;4954027;28;20051;-74
2024/01/09 02:14:04;;;;;;;1.20;1.20;;;;;;;-8.90;73.11;98963.28;4953770;28;20043;-74
2024/01/09 02:16:31;;;;;;;1.15;1.15;;;;;;;-8.98;72.34;98952.28;4952871;28;20053;-74
2024/01/09 02:18:58;;;;;;;0.75;0.75;;;;;;;-8.79;72.06;98955.22;4944827;28;20055;-74
2024/01/09 02:21:25;;;;;;;1.23;1.23;;;;;;;-8.82;71.94;98956.16;4950698;28;20110;-74
2024/01/09 02:23:55;;;;;;;0.38;0.35;;;;;;;-8.87;72.18;98947.69;4953469;28;20035;-72
2024/01/09 02:26:27;;;;;;;1.23;1.23;;;;;;;-8.94;72.16;98956.50;4951851;28;20047;-73
2024/01/09 02:29:17;;;;;;;0.30;0.30;;;;;;;-8.92;72.46;98958.13;4953589;28;20411;-74
2024/01/09 02:31:46;;;;;;;0.98;0.98;;;;;;;-9.01;72.57;98954.94;4943589;28;20749;-75
2024/01/09 02:34:14;;;;;;;1.10;1.10;;;;;;;-8.93;72.51;98948.69;4953453;28;20043;-74
2024/01/09 02:36:41;;;;;;;1.00;1.00;;;;;;;-9.04;72.44;98948.16;4952160;28;20549;-74
2024/01/09 02:39:09;;;;;;;0.90;0.90;;;;;;;-9.02;72.63;98942.91;4947187;28;20044;-74
2024/01/09 02:41:37;;;;;;;1.23;1.23;;;;;;;-9.12;72.87;98944.91;4955146;28;20053;-74
2024/01/09 02:44:05;;;;;;;1.15;1.15;;;;;;;-9.33;73.12;98940.28;4955172;28;20039;-74
2024/01/09 02:46:33;;;;;;;1.30;1.30;;;;;;;-9.24;73.47;98945.25;4949759;28;20514;-74
2024/01/09 02:49:02;;;;;;;1.08;1.08;;;;;;;-9.16;73.11;98943.28;4953967;28;20051;-74
2024/01/09 02:51:30;;;;;;;1.45;1.45;;;;;;;-9.28;73.48;98941.03;4954187;28;20117;-74
2024/01/09 02:53:57;;;;;;;1.15;1.15;;;;;;;-9.16;73.40;98940.72;4953570;28;20053;-75
2024/01/09 02:56:27;;;;;;;1.52;1.52;;;;;;;-9.15;73.50;98939.81;4944227;28;20054;-74
2024/01/09 02:58:54;;;;;;;0.95;0.95;;;;;;;-9.33;73.15;98941.13;4952160;28;20075;-73
2024/01/09 03:01:24;;;;;;;0.98;0.98;;;;;;;-9.50;74.23;98937.28;4948742;28;20049;-73
2024/01/09 03:03:55;;;;;;;0.90;0.90;;;;;;;-9.29;74.03;98935.00;4936456;28;20043;-73
2024/01/09 03:06:24;;;;;;;0.88;0.88;;;;;;;-9.16;73.59;98932.97;4935227;28;20051;-73
2024/01/09 03:08:52;;;;;;;1.05;1.05;;;;;;;-9.24;73.36;98934.91;4953398;28;20047;-73
2024/01/09 03:11:20;;;;;;;1.08;1.08;;;;;;;-9.21;73.47;98931.38;4947123;28;20039;-73
2024/01/09 03:13:48;;;;;;;1.40;1.40;;;;;;;-9.24;73.39;98932.31;4935168;29;20102;-74
2024/01/09 03:16:16;;;;;;;1.67;1.67;;;;;;;-9.21;73.58;98934.81;4952510;28;20055;-74
2024/01/09 03:18:44;;;;;;;1.35;1.35;;;;;;;-9.13;72.69;98927.69;4941886;28;20039;-73
2024/01/09 03:21:12;;;;;;;1.08;1.08;;;;;;;-9.18;73.39;98924.41;4953061;28;20538;-74
2024/01/09 03:23:41;;;;;;;1.25;1.25;;;;;;;-9.18;73.09;98926.13;4949102;28;20040;-74
2024/01/09 03:26:08;;;;;;;1.08;1.08;;;;;;;-9.14;73.16;98927.75;4953031;28;20047;-74
2024/01/09 03:28:37;;;;;;;1.30;1.30;;;;;;;-9.23;72.95;98923.66;4953002;28;20043;-74
2024/01/09 03:31:05;;;;;;;1.50;1.50;;;;;;;-9.01;72.87;98926.50;4952948;28;20047;-73
2024/01/09 03:33:32;;;;;;;1.05;1.05;;;;;;;-9.03;72.44;98920.56;4932222;29;20122;-73
2024/01/09 03:36:05;;;;;;;1.27;1.27;;;;;;;-9.00;72.12;98923.91;4953002;28;20043;-73
2024/01/09 03:38:32;;;;;;;0.20;0.20;;;;;;;-9.07;72.25;98929.28;4944702;28;20414;-73
2024/01/09 03:41:02;;;;;;;0.30;0.30;;;;;;;-9.07;72.54;98917.19;4952694;28;20470;-73
2024/01/09 03:43:29;;;;;;;1.20;1.20;;;;;;;-9.01;72.10;98924.78;4932149;29;20071;-74
2024/01/09 03:45:57;;;;;;;1.08;1.08;;;;;;;-9.00;72.18;98926.47;4951301;28;20055;-73
2024/01/09 03:48:25;;;;;;;1.70;1.70;;;;;;;-9.16;71.84;98920.03;4952609;28;20050;-74
2024/01/09 03:50:53;;;;;;;1.35;1.35;;;;;;;-9.24;72.52;98921.13;4952826;28;20051;-74
2024/01/09 03:53:20;;;;;;;1.20;1.20;;;;;;;-9.19;72.37;98921.84;4949898;28;20118;-74
2024/01/09 03:55:48;;;;;;;1.27;1.27;;;;;;;-9.25;72.71;98922.03;4944107;28;20066;-74
2024/01/09 03:58:17;;;;;;;1.08;1.08;;;;;;;-9.28;72.81;98913.44;4943783;28;20047;-74
2024/01/09 04:00:44;;;;;;;1.17;1.17;;;;;;;-9.20;72.69;98917.56;4945468;28;20044;-74
2024/01/09 04:03:12;;;;;;;1.23;1.23;;;;;;;-9.22;72.82;98927.09;4944715;28;20499;-73
2024/01/09 04:05:39;;;;;;;1.10;1.10;;;;;;;-9.14;72.63;98909.66;4955826;28;20091;-73
2024/01/09 04:08:07;;;;;;;1.15;1.15;;;;;;;-9.18;72.67;98921.81;4955361;28;20070;-73
2024/01/09 04:10:35;;;;;;;1.05;1.05;;;;;;;-9.29;73.26;98921.22;4939249;29;20054;-73
2024/01/09 04:13:03;;;;;;;1.27;1.27;;;;;;;-9.25;72.69;98914.25;4949759;28;20051;-73
2024/01/09 04:15:32;;;;;;;1.55;1.55;;;;;;;-9.28;72.63;98920.34;4951921;28;20043;-74
2024/01/09 04:17:59;;;;;;;0.98;0.98;;;;;;;-9.31;72.64;98921.28;4954004;28;20051;-73
2024/01/09 04:20:27;;;;;;;1.33;1.33;;;;;;;-9.42;72.80;98920.69;4950428;28;20130;-74
2024/01/09 04:22:55;;;;;;;1.15;1.15;;;;;;;-9.34;72.64;98920.50;4955293;28;20043;-74
2024/01/09 04:25:22;;;;;;;1.63;1.63;;;;;;;-9.41;73.32;98927.56;4955919;28;20047;-74
2024/01/09 04:27:50;;;;;;;1.23;1.23;;;;;;;-9.28;73.00;98925.53;4954897;28;20049;-73
2024/01/09 04:30:18;;;;;;;1.08;1.08;;;;;;;-9.28;72.43;98928.09;4953393;28;20043;-74
2024/01/09 04:32:47;;;;;;;1.45;1.45;;;;;;;-9.31;72.81;98925.59;4945517;28;20055;-74
2024/01/09 04:35:14;;;;;;;1.10;1.10;;;;;;;-9.53;72.99;98921.84;4948306;28;20056;-74
2024/01/09 04:37:42;;;;;;;1.13;1.13;;;;;;;-9.63;73.50;98937.56;4947843;28;20043;-74
2024/01/09 04:40:10;;;;;;;0.90;0.90;;;;;;;-9.66;74.04;98929.94;4951662;28;20118;-73
2024/01/09 04:42:38;;;;;;;0.70;0.70;;;;;;;-9.83;74.54;98932.03;4948291;28;20447;-74
2024/01/09 04:45:06;;;;;;;1.25;1.25;;;;;;;-9.73;74.22;98925.78;4951325;28;20043;-74
2024/01/09 04:47:34;;;;;;;1.05;1.05;;;;;;;-9.75;74.35;98924.09;4955496;28;20042;-74
2024/01/09 04:50:03;;;;;;;0.52;0.52;;;;;;;-9.61;74.24;98928.94;4955365;28;20407;-74
2024/01/09 04:52:31;;;;;;;1.05;1.05;;;;;;;-9.58;73.93;98924.56;4955111;28;20050;-74
2024/01/09 04:54:58;;;;;;;1.08;1.08;;;;;;;-9.50;73.33;98916.63;4951829;28;20058;-74
2024/01/09 04:57:26;;;;;;;1.15;1.15;;;;;;;-9.47;73.06;98924.31;4951478;28;20039;-74
2024/01/09 04:59:53;;;;;;;0.40;0.40;;;;;;;-9.65;73.65;98935.91;4955255;28;20405;-74
2024/01/09 05:02:21;;;;;;;1.40;1.40;;;;;;;-9.80;74.38;98929.41;4946038;28;20047;-75
2024/01/09 05:04:48;;;;;;;1.17;1.17;;;;;;;-9.67;74.06;98937.72;4952297;28;20565;-74
2024/01/09 05:07:17;;;;;;;0.95;0.95;;;;;;;-9.71;74.25;98931.75;4940130;28;20051;-74
2024/01/09 05:09:45;;;;;;;1.10;1.10;;;;;;;-9.68;74.20;98938.59;4950931;28;20499;-76
2024/01/09 05:12:13;;;;;;;1.13;1.13;;;;;;;-9.87;74.68;98930.44;4953196;28;20060;-74
2024/01/09 05:14:40;;;;;;;1.10;1.10;;;;;;;-9.83;74.54;98926.88;4957799;28;20043;-74
2024/01/09 05:17:08;;;;;;;1.15;1.15;;;;;;;-9.69;74.12;98927.41;4954851;28;20126;-74
2024/01/09 05:19:36;;;;;;;1.08;1.08;;;;;;;-9.64;73.87;98929.88;4950227;28;20039;-74
2024/01/09 05:22:04;;;;;;;1.25;1.25;;;;;;;-9.84;73.97;98919.16;4945822;28;20051;-74
2024/01/09 05:24:33;;;;;;;1.33;1.33;;;;;;;-9.89;74.59;98928.78;4988964;23;20050;-73
2024/01/09 05:27:00;;;;;;;1.27;1.27;;;;;;;-9.85;74.42;98930.38;4985823;28;20047;-72
2024/01/09 05:29:28;;;;;;;1.17;1.17;;;;;;;-9.80;74.40;98926.81;4970841;28;20043;-72
2024/01/09 05:31:55;;;;;;;2.33;2.25;;;;;;;-10.04;75.19;98929.97;4979278;28;20078;-72
2024/01/09 05:34:23;;;;;;;0.30;0.30;;;;;;;-10.03;75.40;98927.34;4969309;28;20397;-72
2024/01/09 05:36:50;;;;;;;0.65;0.65;;;;;;;-9.99;75.62;98920.41;4973339;28;20466;-73
2024/01/09 05:39:18;;;;;;;1.15;1.15;;;;;;;-9.83;74.86;98926.03;4970989;28;20046;-71
2024/01/09 05:41:47;;;;;;;1.08;1.08;;;;;;;-9.90;75.09;98940.81;4973161;28;20043;-73
2024/01/09 05:44:15;;;;;;;1.15;1.15;;;;;;;-9.79;74.90;98935.41;4960899;28;20050;-72
2024/01/09 05:46:43;;;;;;;0.88;0.88;;;;;;;-10.23;75.48;98939.03;4975673;28;20502;-73
2024/01/09 05:49:10;;;;;;;1.20;1.20;;;;;;;-10.19;76.50;98938.94;4976027;28;20043;-71
2024/01/09 05:51:38;;;;;;;1.52;1.52;;;;;;;-10.05;76.02;98949.75;4976145;28;20053;-72
2024/01/09 05:54:05;;;;;;;1.17;1.17;;;;;;;-9.95;75.48;98957.28;4972673;28;20051;-71
2024/01/09 05:56:33;;;;;;;1.33;1.33;;;;;;;-9.90;75.45;98960.63;4971823;28;20102;-73
2024/01/09 05:59:02;;;;;;;1.65;1.65;;;;;;;-9.86;75.57;98957.91;4972501;28;20569;-73
2024/01/09 06:01:30;;;;;;;0.50;0.50;;;;;;;-9.93;75.81;98958.09;4971916;28;20417;-72
2024/01/09 06:03:57;;;;;;;0.45;0.45;;;;;;;-9.88;75.37;98957.13;4956295;28;20372;-73
2024/01/09 06:06:25;;;;;;;1.75;1.75;;;;;;;-9.74;75.03;98962.81;4971499;28;20130;-72
2024/01/09 06:08:53;;;;;;;0.95;0.95;;;;;;;-9.69;75.03;98962.72;4972622;28;20043;-72
2024/01/09 06:11:20;;;;;;;0.88;0.88;;;;;;;-9.59;74.70;98956.44;4971306;28;20514;-72
2024/01/09 06:13:48;;;;;;;1.15;1.15;;;;;;;-9.55;74.41;98960.63;4972119;28;20053;-71
2024/01/09 06:16:17;;;;;;;1.13;1.13;;;;;;;-9.60;74.25;98970.22;4971669;28;20047;-71
2024/01/09 06:18:44;;;;;;;0.90;0.90;;;;;;;-9.71;74.53;98962.75;4978698;28;20047;-71
2024/01/09 06:21:12;;;;;;;1.15;1.15;;;;;;;-9.67;74.60;98968.69;4972969;28;20050;-71
2024/01/09 06:23:42;;;;;;;1.38;1.38;;;;;;;-9.63;74.73;98971.16;4977267;28;20549;-71
2024/01/09 06:26:09;;;;;;;0.63;0.63;;;;;;;-9.50;74.39;98965.69;4964612;28;20414;-72
2024/01/09 06:28:37;;;;;;;1.50;1.50;;;;;;;-9.50;74.12;98963.97;4978378;28;20047;-71
2024/01/09 06:31:04;;;;;;;1.42;1.42;;;;;;;-9.55;74.08;98970.97;4981754;28;20055;-71
2024/01/09 06:33:33;;;;;;;0.30;0.30;;;;;;;-9.59;74.29;98966.78;4962631;28;20410;-71
2024/01/09 06:36:01;;;;;;;1.23;1.23;;;;;;;-9.73;74.54;98972.25;4971029;28;20050;-72
2024/01/09 06:38:29;;;;;;;1.50;1.50;;;;;;;-9.71;74.76;98969.63;4968738;28;20516;-72
2024/01/09 06:40:57;;;;;;;1.23;1.23;;;;;;;-9.63;74.79;98975.47;4971273;28;20058;-71
2024/01/09 06:43:24;;;;;;;1.35;1.35;;;;;;;-9.54;74.56;98977.81;4971823;28;20055;-72
2024/01/09 06:45:52;;;;;;;1.35;1.35;;;;;;;-9.53;74.41;98983.84;4973708;28;20047;-72
2024/01/09 06:48:19;;;;;;;0.98;0.98;;;;;;;-9.48;74.37;98984.59;4971637;28;20558;-72
2024/01/09 06:50:48;;;;;;;1.23;1.23;;;;;;;-9.49;74.50;98978.56;4971072;28;20039;-71
2024/01/09 06:53:16;;;;;;;1.05;1.05;;;;;;;-9.51;74.78;98979.50;4972209;28;20502;-72
2024/01/09 06:55:44;;;;;;;1.00;1.00;;;;;;;-9.56;74.39;98981.34;4973947;28;20117;-72
2024/01/09 06:58:16;;;;;;;1.02;1.02;;;;;;;-9.53;75.02;98984.69;4970185;28;20121;-72
2024/01/09 07:00:44;;;;;;;1.27;1.27;;;;;;;-9.51;74.58;98987.25;4971109;28;20089;-72
2024/01/09 07:03:12;;;;;;;0.35;0.35;;;;;;;-9.50;74.83;98991.53;4964555;28;20387;-72
2024/01/09 07:05:39;;;;;;;1.38;1.38;;;;;;;-9.64;75.22;98991.84;4971384;28;20039;-72
2024/01/09 07:08:09;;;;;;;1.48;1.48;;;;;;;-9.58;75.18;98988.28;4973172;28;20038;-72
2024/01/09 07:10:36;;;;;;;0.40;0.40;;;;;;;-9.53;75.22;98989.84;4970241;28;20417;-72
2024/01/09 07:13:04;;;;;;;1.23;1.23;;;;;;;-9.48;75.28;98993.19;4968882;28;20049;-71
2024/01/09 07:15:32;;;;;;;1.58;1.58;;;;;;;-9.43;75.43;98985.31;4975027;28;20070;-72
2024/01/09 07:17:59;;;;;;;1.17;1.17;;;;;;;-9.46;74.94;98988.00;4968032;28;20047;-72
2024/01/09 07:20:28;;;;;;;1.05;1.05;;;;;;;-9.57;74.80;98985.66;4971830;28;20114;-73
2024/01/09 07:22:55;;;;;;;1.77;1.77;;;;;;;-9.52;74.98;98983.81;4976401;28;20136;-72
2024/01/09 07:25:37;;;;;;;1.08;1.08;;;;;;;-9.42;74.99;98981.84;4971769;28;20124;-71
2024/01/09 07:28:06;;;;;;;1.15;1.15;;;;;;;-9.46;75.26;98994.00;4970710;28;20047;-72
2024/01/09 07:30:33;;;;;;;1.02;1.02;;;;;;;-9.66;75.34;98991.06;4971511;28;20056;-71
2024/01/09 07:33:01;;;;;;;1.23;1.23;;;;;;;-9.80;76.14;98993.09;4971298;28;20506;-74
2024/01/09 07:35:34;;;;;;;1.60;1.60;;;;;;;-9.73;75.67;98989.47;4969380;28;20101;-73
2024/01/09 07:38:02;;;;;;;1.58;1.58;;;;;;;-9.72;76.08;98993.75;4966519;28;20502;-73
2024/01/09 07:40:29;;;;;;;1.92;1.92;;;;;;;-9.65;76.06;98993.56;4966339;28;20057;-73
2024/01/09 07:42:59;;;;;;;1.58;1.58;;;;;;;-9.54;75.80;98995.06;4973522;28;20054;-73
2024/01/09 07:45:29;;;;;;;1.08;1.08;;;;;;;-9.47;75.43;98991.47;4968596;28;20042;-73
2024/01/09 07:47:58;;;;;;;1.30;1.30;;;;;;;-9.56;75.49;98992.53;4974386;28;20080;-73
2024/01/09 07:50:27;;;;;;;1.15;1.15;;;;;;;-9.61;75.04;98993.50;4974675;28;20498;-73
2024/01/09 07:52:55;;;;;;;1.17;1.17;;;;;;;-9.66;75.21;98985.88;4971837;28;20043;-73
2024/01/09 07:55:22;;;;;;;0.90;0.90;;;;;;;-9.70;75.61;98995.44;4974060;28;20055;-73
2024/01/09 07:57:50;;;;;;;1.08;1.08;;;;;;;-9.64;75.78;98999.59;4974205;28;20058;-73
2024/01/09 08:00:19;;;;;;;0.45;0.45;;;;;;;-9.52;75.54;98988.13;4974235;28;20414;-73
2024/01/09 08:02:47;;;;;;;1.20;1.20;;;;;;;-9.36;74.99;98992.91;4968716;28;20125;-73
2024/01/09 08:05:15;;;;;;;1.55;1.55;;;;;;;-9.48;74.70;99003.53;4975462;28;20122;-73
2024/01/09 08:07:45;;;;;;;1.13;1.13;;;;;;;-9.61;74.82;99004.69;4977046;28;20118;-73
2024/01/09 08:10:14;;;;;;;1.50;1.50;;;;;;;-9.62;74.95;99003.00;4974758;28;20054;-73
2024/01/09 08:12:42;;;;;;;0.98;0.98;;;;;;;-9.64;74.85;98999.59;4974419;28;20118;-73
2024/01/09 08:15:11;;;;;;;1.23;1.23;;;;;;;-9.81;75.32;99002.56;4975578;28;20494;-73
2024/01/09 08:17:39;;;;;;;1.05;1.05;;;;;;;-9.69;75.40;99014.34;4975533;28;20465;-73
2024/01/09 08:20:08;;;;;;;0.93;0.93;;;;;;;-9.62;75.42;99010.75;4972240;28;20651;-73
2024/01/09 08:22:35;;;;;;;1.15;1.15;;;;;;;-9.60;75.13;99019.31;4977481;28;20046;-73
2024/01/09 08:25:03;;;;;;;1.48;1.48;;;;;;;-9.52;74.95;99019.97;4976241;28;20121;-73
2024/01/09 08:27:31;;;;;;;1.05;1.05;;;;;;;-9.62;74.99;99013.31;4976080;28;20545;-73
2024/01/09 08:29:58;;;;;;;1.00;1.00;;;;;;;-9.71;75.43;99016.97;4970396;28;20130;-74
2024/01/09 08:32:27;;;;;;;1.70;1.70;;;;;;;-9.57;75.00;99015.81;4972134;28;20134;-73
2024/01/09 08:34:56;;;;;;;1.27;1.27;;;;;;;-9.60;75.29;99015.88;4972664;28;20042;-72
2024/01/09 08:37:24;;;;;;;1.63;1.63;;;;;;;-9.44;75.05;99024.94;4972700;28;20046;-73
2024/01/09 08:39:51;;;;;;;1.38;1.38;;;;;;;-9.34;74.55;99024.69;4974014;28;20043;-73
2024/01/09 08:42:19;;;;;;;1.25;1.25;;;;;;;-9.27;74.04;99015.94;4974282;28;20043;-73
2024/01/09 08:44:46;;;;;;;1.05;1.05;;;;;;;-9.39;74.57;99015.38;4978067;28;20034;-72
2024/01/09 08:47:14;;;;;;;1.30;1.30;;;;;;;-9.32;74.61;99022.94;4972006;28;20122;-73
2024/01/09 08:49:42;;;;;;;1.30;1.30;;;;;;;-9.33;74.60;99013.47;4974335;28;20054;-73
2024/01/09 08:52:11;;;;;;;1.35;1.35;;;;;;;-9.23;74.78;99028.75;4970852;28;20046;-73
2024/01/09 08:54:39;;;;;;;1.33;1.33;;;;;;;-9.21;74.64;99024.41;4954398;28;20070;-73
2024/01/09 08:57:07;;;;;;;0.98;0.98;;;;;;;-9.20;75.11;99026.97;4954810;28;20050;-73
2024/01/09 08:59:34;;;;;;;0.85;0.85;;;;;;;-9.08;74.83;99018.06;4971808;28;20517;-73
2024/01/09 09:02:02;;;;;;;1.20;1.20;;;;;;;-9.01;74.64;99020.44;4971919;28;20116;-73
2024/01/09 09:04:29;;;;;;;1.10;1.10;;;;;;;-8.95;74.24;99009.94;4971897;28;20057;-73
2024/01/09 09:06:57;;;;;;;1.50;1.50;;;;;;;-8.94;73.75;99018.56;4973454;28;20537;-73
2024/01/09 09:09:26;;;;;;;0.30;0.30;;;;;;;-8.90;73.54;99020.16;4971741;28;20653;-73
2024/01/09 09:11:54;;;;;;;1.35;1.35;;;;;;;-8.91;72.90;99021.03;4972007;28;20060;-73
2024/01/09 09:14:21;;;;;;;1.65;1.65;;;;;;;-9.05;73.78;99021.41;4970428;28;20058;-73
2024/01/09 09:16:49;;;;;;;1.48;1.48;;;;;;;-8.96;74.13;99020.34;4972102;28;20116;-72
2024/01/09 09:19:17;;;;;;;0.98;0.98;;;;;;;-8.99;73.80;99025.56;4972270;28;20050;-72
2024/01/09 09:21:45;;;;;;;1.17;1.17;;;;;;;-8.97;73.15;99024.66;4975262;28;20047;-73
2024/01/09 09:24:13;;;;;;;1.10;1.10;;;;;;;-9.03;73.56;99019.63;4944114;28;1023234;-73
2024/01/09 09:26:42;;;;;;;1.17;1.17;;;;;;;-9.05;73.47;99015.41;4973665;28;20118;-73
2024/01/09 09:29:10;;;;;;;1.45;1.45;;;;;;;-8.99;73.62;99022.97;4976608;28;20043;-72
2024/01/09 09:31:54;;;;;;;0.95;0.95;;;;;;;-9.14;74.02;99018.22;4972148;28;20070;-72
2024/01/09 09:34:21;;;;;;;1.88;1.88;;;;;;;-9.08;74.11;99016.31;4974931;28;20069;-72
2024/01/09 09:36:49;;;;;;;1.25;1.25;;;;;;;-9.02;73.81;99020.47;4975493;28;20054;-72
2024/01/09 09:39:17;;;;;;;1.13;1.13;;;;;;;-9.08;74.00;99018.91;4974217;28;20053;-73
2024/01/09 09:41:47;;;;;;;1.35;1.35;;;;;;;-8.99;73.58;99031.59;4972306;28;20035;-72
2024/01/09 09:44:15;;;;;;;1.70;1.70;;;;;;;-9.03;73.84;99029.13;4971007;28;20050;-73
2024/01/09 09:46:44;;;;;;;0.98;0.98;;;;;;;-8.98;73.76;99025.53;4973129;28;20038;-73
2024/01/09 09:49:12;;;;;;;0.50;0.50;;;;;;;-8.94;73.90;99023.72;4970897;28;20257;-72
2024/01/09 09:51:40;;;;;;;1.58;1.58;;;;;;;-8.92;73.85;99021.94;4967978;28;20049;-73
2024/01/09 09:54:09;;;;;;;1.17;1.17;;;;;;;-9.08;74.11;99028.38;4968969;28;20074;-73
2024/01/09 09:56:37;;;;;;;0.95;0.95;;;;;;;-9.47;74.69;99018.16;4965397;28;20552;-73
2024/01/09 09:59:13;;;;;;;1.10;1.10;;;;;;;-9.27;75.30;99025.41;4973144;28;20110;-73
2024/01/09 10:01:41;;;;;;;1.50;1.50;;;;;;;-9.14;74.51;99013.06;4971996;28;20117;-73
2024/01/09 10:04:24;;;;;;;1.27;1.27;;;;;;;-8.96;74.72;99013.44;4970878;28;20051;-72
2024/01/09 10:06:53;;;;;;;1.42;1.42;;;;;;;-8.88;74.42;99018.38;4973205;28;20070;-73
2024/01/09 10:09:21;;;;;;;1.52;1.52;;;;;;;-9.14;75.23;99010.47;4972705;28;20047;-73
2024/01/09 10:11:49;;;;;;;1.67;1.67;;;;;;;-8.87;74.73;99007.16;4965876;28;20043;-73
2024/01/09 10:14:18;;;;;;;1.15;1.15;;;;;;;-8.91;74.12;99006.38;4972189;28;20560;-75
2024/01/09 10:16:50;;;;;;;1.60;1.60;;;;;;;-8.75;73.92;99008.59;4971232;28;20045;-73
2024/01/09 10:19:18;;;;;;;1.00;1.00;;;;;;;-8.82;74.09;99000.13;4957489;28;20065;-73
2024/01/09 10:21:45;;;;;;;1.30;1.30;;;;;;;-8.81;74.18;98993.22;4972533;28;20078;-73
2024/01/09 10:24:13;;;;;;;1.25;1.25;;;;;;;-8.62;74.16;99010.81;4971994;28;20525;-73
2024/01/09 10:26:41;;;;;;;1.52;1.52;;;;;;;-8.64;73.62;98985.88;4969148;28;20051;-73
2024/01/09 10:29:11;;;;;;;1.50;1.50;;;;;;;-8.48;73.63;99005.22;4970295;28;20046;-73
2024/01/09 10:31:43;;;;;;;1.00;1.00;;;;;;;-8.49;73.52;98992.34;4972035;28;20047;-73
2024/01/09 10:34:10;;;;;;;1.23;1.23;;;;;;;-8.47;73.75;98986.22;4972145;28;20138;-73
2024/01/09 10:36:38;;;;;;;1.20;1.20;;;;;;;-8.38;73.70;98982.53;4971605;28;20130;-73
2024/01/09 10:39:06;;;;;;;1.20;1.20;;;;;;;-8.38;73.66;98985.13;4972519;28;20085;-73
2024/01/09 10:41:34;;;;;;;1.50;1.50;;;;;;;-8.35;74.22;98979.88;4970870;28;20114;-73
2024/01/09 10:44:03;;;;;;;1.15;1.15;;;;;;;-8.39;73.21;98978.25;4965769;28;20389;-73
2024/01/09 10:46:36;;;;;;;0.40;0.40;;;;;;;-8.42;73.68;98975.75;4970203;28;20414;-73
2024/01/09 10:49:06;;;;;;;1.40;1.40;;;;;;;-8.31;73.27;98974.53;4971598;28;20045;-73
2024/01/09 10:51:35;;;;;;;1.38;1.38;;;;;;;-8.29;73.65;98967.56;4971574;28;20058;-73
2024/01/09 10:54:04;;;;;;;1.30;1.30;;;;;;;-8.39;73.77;98965.31;4968543;28;20058;-73
2024/01/09 10:56:33;;;;;;;1.20;1.20;;;;;;;-8.26;73.52;98962.28;4973157;28;20162;-73
2024/01/09 10:59:02;;;;;;;1.63;1.63;;;;;;;-8.15;73.66;98959.38;4966059;28;20042;-73
2024/01/09 11:01:31;;;;;;;1.33;1.33;;;;;;;-8.14;73.42;98958.50;4969088;28;20050;-74
2024/01/09 11:03:58;;;;;;;0.40;0.40;;;;;;;-8.11;73.53;98962.75;4968695;28;20394;-73
2024/01/09 11:06:28;;;;;;;1.83;1.83;;;;;;;-8.16;73.52;98965.47;4970320;28;20065;-73
2024/01/09 11:08:58;;;;;;;1.50;1.50;;;;;;;-8.05;73.38;98960.81;4954449;28;20129;-73
2024/01/09 11:11:27;;;;;;;0.57;0.57;;;;;;;-7.86;73.44;98955.91;4971681;28;20508;-73
2024/01/09 11:13:55;;;;;;;1.55;1.55;;;;;;;-7.74;72.58;98955.53;4971851;28;20071;-73
2024/01/09 11:16:24;;;;;;;0.98;0.98;;;;;;;-7.71;72.21;98959.78;4954271;28;20046;-73
2024/01/09 11:18:53;;;;;;;1.20;1.20;;;;;;;-7.58;72.09;98955.91;4971447;28;20038;-73
2024/01/09 11:21:25;;;;;;;1.13;1.13;;;;;;;-7.63;72.55;98943.09;4969152;28;20062;-73
2024/01/09 11:23:57;;;;;;;1.35;1.35;;;;;;;-7.48;72.64;98947.78;4971318;28;20130;-74
2024/01/09 11:26:30;;;;;;;1.33;1.33;;;;;;;-7.50;71.31;98943.56;4971036;28;20125;-74
2024/01/09 11:28:59;;;;;;;0.32;0.32;;;;;;;-7.44;71.30;98944.19;4971875;28;20461;-74
2024/01/09 11:31:29;;;;;;;1.17;1.17;;;;;;;-7.30;71.43;98937.69;4970077;28;20046;-75
2024/01/09 11:34:01;;;;;;;1.00;1.00;;;;;;;-7.18;71.04;98932.13;4968325;28;20055;-74
2024/01/09 11:36:29;;;;;;;0.98;0.98;;;;;;;-7.15;71.18;98924.22;4967138;28;20034;-75
2024/01/09 11:38:59;;;;;;;0.32;0.32;;;;;;;-7.05;70.96;98915.22;4970817;28;20483;-75